sensor_id;sensor_type;location;lat;lon;timestamp;P1;durP1;ratioP1;P2;durP2;ratioP2
73251;SDS011;61473;50.834;4.552;2022-07-05T00:01:42;2.65;;;1.13;;
73251;SDS011;61473;50.834;4.552;2022-07-05T00:04:08;2.63;;;0.77;;
73251;SDS011;61473;50.834;4.552;2022-07-05T00:06:34;1.67;;;1.20;;
73251;SDS011;61473;50.834;4.552;2022-07-05T00:08:59;2.08;;;1.25;;
73251;SDS011;61473;50.834;4.552;2022-07-05T00:11:25;1.90;;;1.08;;
73251;SDS011;61473;50.834;4.552;2022-07-05T00:13:51;3.95;;;1.77;;
73251;SDS011;61473;50.834;4.552;2022-07-05T00:16:16;3.50;;;1.48;;
73251;SDS011;61473;50.834;4.552;2022-07-05T00:18:42;2.90;;;1.27;;
73251;SDS011;61473;50.834;4.552;2022-07-05T00:21:08;1.80;;;0.90;;
73251;SDS011;61473;50.834;4.552;2022-07-05T00:23:34;3.72;;;1.30;;
73251;SDS011;61473;50.834;4.552;2022-07-05T00:26:00;2.20;;;1.23;;
73251;SDS011;61473;50.834;4.552;2022-07-05T00:28:25;3.22;;;0.85;;
73251;SDS011;61473;50.834;4.552;2022-07-05T00:30:51;2.38;;;1.17;;
73251;SDS011;61473;50.834;4.552;2022-07-05T00:33:17;1.77;;;1.17;;
73251;SDS011;61473;50.834;4.552;2022-07-05T00:35:42;2.13;;;1.27;;
73251;SDS011;61473;50.834;4.552;2022-07-05T00:38:08;9.82;;;2.92;;
73251;SDS011;61473;50.834;4.552;2022-07-05T00:40:34;2.03;;;1.25;;
73251;SDS011;61473;50.834;4.552;2022-07-05T00:42:59;3.35;;;1.20;;
73251;SDS011;61473;50.834;4.552;2022-07-05T00:45:25;3.78;;;1.38;;
73251;SDS011;61473;50.834;4.552;2022-07-05T00:47:51;3.70;;;1.10;;
73251;SDS011;61473;50.834;4.552;2022-07-05T00:50:17;3.08;;;1.48;;
73251;SDS011;61473;50.834;4.552;2022-07-05T00:52:43;3.20;;;1.30;;
73251;SDS011;61473;50.834;4.552;2022-07-05T00:55:09;1.63;;;1.27;;
73251;SDS011;61473;50.834;4.552;2022-07-05T00:57:35;2.20;;;1.02;;
73251;SDS011;61473;50.834;4.552;2022-07-05T01:00:01;3.35;;;1.10;;
73251;SDS011;61473;50.834;4.552;2022-07-05T01:02:28;1.75;;;1.30;;
73251;SDS011;61473;50.834;4.552;2022-07-05T01:04:53;3.33;;;1.10;;
73251;SDS011;61473;50.834;4.552;2022-07-05T01:07:21;1.35;;;1.00;;
73251;SDS011;61473;50.834;4.552;2022-07-05T01:09:48;2.17;;;1.40;;
73251;SDS011;61473;50.834;4.552;2022-07-05T01:12:15;3.15;;;0.85;;
73251;SDS011;61473;50.834;4.552;2022-07-05T01:14:42;1.40;;;1.30;;
73251;SDS011;61473;50.834;4.552;2022-07-05T01:17:08;1.08;;;0.98;;
73251;SDS011;61473;50.834;4.552;2022-07-05T01:19:34;1.88;;;0.90;;
73251;SDS011;61473;50.834;4.552;2022-07-05T01:22:01;4.30;;;0.90;;
73251;SDS011;61473;50.834;4.552;2022-07-05T01:24:32;2.97;;;1.15;;
73251;SDS011;61473;50.834;4.552;2022-07-05T01:26:58;1.48;;;1.20;;
73251;SDS011;61473;50.834;4.552;2022-07-05T01:29:24;1.45;;;0.90;;
73251;SDS011;61473;50.834;4.552;2022-07-05T01:31:50;2.33;;;1.20;;
73251;SDS011;61473;50.834;4.552;2022-07-05T01:34:17;1.45;;;0.95;;
73251;SDS011;61473;50.834;4.552;2022-07-05T01:36:43;2.60;;;0.80;;
73251;SDS011;61473;50.834;4.552;2022-07-05T01:39:09;2.17;;;0.90;;
73251;SDS011;61473;50.834;4.552;2022-07-05T01:41:35;3.28;;;1.10;;
73251;SDS011;61473;50.834;4.552;2022-07-05T01:44:01;1.17;;;1.08;;
73251;SDS011;61473;50.834;4.552;2022-07-05T01:46:29;6.43;;;1.30;;
73251;SDS011;61473;50.834;4.552;2022-07-05T01:48:58;2.65;;;1.52;;
73251;SDS011;61473;50.834;4.552;2022-07-05T01:51:30;3.10;;;1.05;;
73251;SDS011;61473;50.834;4.552;2022-07-05T01:53:59;2.75;;;1.10;;
73251;SDS011;61473;50.834;4.552;2022-07-05T01:56:25;2.47;;;1.20;;
73251;SDS011;61473;50.834;4.552;2022-07-05T01:58:51;1.00;;;0.90;;
73251;SDS011;61473;50.834;4.552;2022-07-05T02:01:31;1.75;;;1.05;;
73251;SDS011;61473;50.834;4.552;2022-07-05T02:04:01;4.07;;;1.17;;
73251;SDS011;61473;50.834;4.552;2022-07-05T02:06:28;0.85;;;0.73;;
73251;SDS011;61473;50.834;4.552;2022-07-05T02:08:54;1.70;;;1.00;;
73251;SDS011;61473;50.834;4.552;2022-07-05T02:11:20;2.65;;;0.98;;
73251;SDS011;61473;50.834;4.552;2022-07-05T02:13:46;1.23;;;1.08;;
73251;SDS011;61473;50.834;4.552;2022-07-05T02:16:11;2.30;;;1.25;;
73251;SDS011;61473;50.834;4.552;2022-07-05T02:18:37;3.90;;;1.10;;
73251;SDS011;61473;50.834;4.552;2022-07-05T02:21:03;1.10;;;0.90;;
73251;SDS011;61473;50.834;4.552;2022-07-05T02:23:29;2.80;;;1.20;;
73251;SDS011;61473;50.834;4.552;2022-07-05T02:25:54;2.97;;;0.70;;
73251;SDS011;61473;50.834;4.552;2022-07-05T02:28:20;1.92;;;1.30;;
73251;SDS011;61473;50.834;4.552;2022-07-05T02:30:46;1.17;;;0.90;;
73251;SDS011;61473;50.834;4.552;2022-07-05T02:33:13;1.90;;;1.00;;
73251;SDS011;61473;50.834;4.552;2022-07-05T02:35:38;2.70;;;0.70;;
73251;SDS011;61473;50.834;4.552;2022-07-05T02:38:04;0.82;;;0.80;;
73251;SDS011;61473;50.834;4.552;2022-07-05T02:40:30;3.08;;;1.17;;
73251;SDS011;61473;50.834;4.552;2022-07-05T02:42:56;1.38;;;0.90;;
73251;SDS011;61473;50.834;4.552;2022-07-05T02:45:23;2.38;;;0.90;;
73251;SDS011;61473;50.834;4.552;2022-07-05T02:47:49;3.03;;;1.60;;
73251;SDS011;61473;50.834;4.552;2022-07-05T02:50:15;3.50;;;1.30;;
73251;SDS011;61473;50.834;4.552;2022-07-05T02:52:41;1.38;;;0.80;;
73251;SDS011;61473;50.834;4.552;2022-07-05T02:55:06;1.70;;;0.90;;
73251;SDS011;61473;50.834;4.552;2022-07-05T02:57:32;1.13;;;1.02;;
73251;SDS011;61473;50.834;4.552;2022-07-05T02:59:58;1.42;;;1.02;;
73251;SDS011;61473;50.834;4.552;2022-07-05T03:02:24;1.65;;;0.77;;
73251;SDS011;61473;50.834;4.552;2022-07-05T03:04:50;3.40;;;1.02;;
73251;SDS011;61473;50.834;4.552;2022-07-05T03:07:16;4.05;;;2.65;;
73251;SDS011;61473;50.834;4.552;2022-07-05T03:09:41;1.45;;;0.82;;
73251;SDS011;61473;50.834;4.552;2022-07-05T03:12:07;4.10;;;1.25;;
73251;SDS011;61473;50.834;4.552;2022-07-05T03:14:33;1.73;;;0.98;;
73251;SDS011;61473;50.834;4.552;2022-07-05T03:16:59;1.70;;;0.90;;
73251;SDS011;61473;50.834;4.552;2022-07-05T03:19:24;0.90;;;0.80;;
73251;SDS011;61473;50.834;4.552;2022-07-05T03:21:50;4.95;;;1.15;;
73251;SDS011;61473;50.834;4.552;2022-07-05T03:24:16;1.95;;;0.95;;
73251;SDS011;61473;50.834;4.552;2022-07-05T03:26:41;4.38;;;1.25;;
73251;SDS011;61473;50.834;4.552;2022-07-05T03:29:07;1.95;;;0.90;;
73251;SDS011;61473;50.834;4.552;2022-07-05T03:31:33;3.88;;;0.60;;
73251;SDS011;61473;50.834;4.552;2022-07-05T03:33:59;1.65;;;0.93;;
73251;SDS011;61473;50.834;4.552;2022-07-05T03:36:25;1.08;;;0.55;;
73251;SDS011;61473;50.834;4.552;2022-07-05T03:38:51;1.92;;;0.73;;
73251;SDS011;61473;50.834;4.552;2022-07-05T03:41:17;1.70;;;0.90;;
73251;SDS011;61473;50.834;4.552;2022-07-05T03:43:43;2.70;;;0.88;;
73251;SDS011;61473;50.834;4.552;2022-07-05T03:46:08;5.20;;;1.02;;
73251;SDS011;61473;50.834;4.552;2022-07-05T03:48:34;2.92;;;1.13;;
73251;SDS011;61473;50.834;4.552;2022-07-05T03:51:00;2.95;;;1.50;;
73251;SDS011;61473;50.834;4.552;2022-07-05T03:53:26;1.25;;;0.70;;
73251;SDS011;61473;50.834;4.552;2022-07-05T03:55:52;1.60;;;1.17;;
73251;SDS011;61473;50.834;4.552;2022-07-05T03:58:17;1.92;;;0.98;;
73251;SDS011;61473;50.834;4.552;2022-07-05T04:00:43;1.98;;;1.02;;
73251;SDS011;61473;50.834;4.552;2022-07-05T04:03:09;2.22;;;0.80;;
73251;SDS011;61473;50.834;4.552;2022-07-05T04:05:35;2.65;;;1.55;;
73251;SDS011;61473;50.834;4.552;2022-07-05T04:08:00;0.55;;;0.55;;
73251;SDS011;61473;50.834;4.552;2022-07-05T04:10:26;0.93;;;0.82;;
73251;SDS011;61473;50.834;4.552;2022-07-05T04:12:52;2.78;;;0.90;;
73251;SDS011;61473;50.834;4.552;2022-07-05T04:15:18;2.38;;;1.52;;
73251;SDS011;61473;50.834;4.552;2022-07-05T04:17:50;1.33;;;0.80;;
73251;SDS011;61473;50.834;4.552;2022-07-05T04:20:18;1.25;;;1.02;;
73251;SDS011;61473;50.834;4.552;2022-07-05T04:22:45;3.72;;;1.35;;
73251;SDS011;61473;50.834;4.552;2022-07-05T04:25:11;1.08;;;0.98;;
73251;SDS011;61473;50.834;4.552;2022-07-05T04:27:46;3.67;;;1.15;;
73251;SDS011;61473;50.834;4.552;2022-07-05T04:30:13;4.50;;;1.10;;
73251;SDS011;61473;50.834;4.552;2022-07-05T04:32:40;2.50;;;1.45;;
73251;SDS011;61473;50.834;4.552;2022-07-05T04:35:06;2.85;;;1.15;;
73251;SDS011;61473;50.834;4.552;2022-07-05T04:37:32;3.33;;;1.13;;
73251;SDS011;61473;50.834;4.552;2022-07-05T04:39:58;2.42;;;1.25;;
73251;SDS011;61473;50.834;4.552;2022-07-05T04:42:23;3.97;;;0.88;;
73251;SDS011;61473;50.834;4.552;2022-07-05T04:44:49;2.33;;;0.88;;
73251;SDS011;61473;50.834;4.552;2022-07-05T04:47:15;2.95;;;0.90;;
73251;SDS011;61473;50.834;4.552;2022-07-05T04:49:40;3.80;;;1.17;;
73251;SDS011;61473;50.834;4.552;2022-07-05T04:52:06;3.15;;;1.08;;
73251;SDS011;61473;50.834;4.552;2022-07-05T04:54:32;2.42;;;1.10;;
73251;SDS011;61473;50.834;4.552;2022-07-05T04:56:58;1.88;;;1.00;;
73251;SDS011;61473;50.834;4.552;2022-07-05T04:59:23;4.00;;;0.95;;
73251;SDS011;61473;50.834;4.552;2022-07-05T05:01:49;2.38;;;1.02;;
73251;SDS011;61473;50.834;4.552;2022-07-05T05:04:15;3.13;;;0.90;;
73251;SDS011;61473;50.834;4.552;2022-07-05T05:06:40;4.75;;;1.00;;
73251;SDS011;61473;50.834;4.552;2022-07-05T05:09:06;3.25;;;1.45;;
73251;SDS011;61473;50.834;4.552;2022-07-05T05:11:32;1.75;;;0.80;;
73251;SDS011;61473;50.834;4.552;2022-07-05T05:13:57;2.53;;;1.02;;
73251;SDS011;61473;50.834;4.552;2022-07-05T05:16:23;3.53;;;1.13;;
73251;SDS011;61473;50.834;4.552;2022-07-05T05:18:49;3.13;;;1.33;;
73251;SDS011;61473;50.834;4.552;2022-07-05T05:21:15;2.35;;;1.20;;
73251;SDS011;61473;50.834;4.552;2022-07-05T05:23:40;4.53;;;1.48;;
73251;SDS011;61473;50.834;4.552;2022-07-05T05:26:06;2.97;;;1.30;;
73251;SDS011;61473;50.834;4.552;2022-07-05T05:28:32;5.75;;;1.42;;
73251;SDS011;61473;50.834;4.552;2022-07-05T05:30:58;2.58;;;1.13;;
73251;SDS011;61473;50.834;4.552;2022-07-05T05:33:24;4.88;;;1.52;;
73251;SDS011;61473;50.834;4.552;2022-07-05T05:35:50;3.15;;;1.38;;
73251;SDS011;61473;50.834;4.552;2022-07-05T05:38:16;2.67;;;1.38;;
73251;SDS011;61473;50.834;4.552;2022-07-05T05:40:41;2.40;;;1.48;;
73251;SDS011;61473;50.834;4.552;2022-07-05T05:43:09;3.33;;;1.30;;
73251;SDS011;61473;50.834;4.552;2022-07-05T05:45:36;4.70;;;1.60;;
73251;SDS011;61473;50.834;4.552;2022-07-05T05:48:01;4.03;;;2.40;;
73251;SDS011;61473;50.834;4.552;2022-07-05T05:50:30;5.13;;;1.50;;
73251;SDS011;61473;50.834;4.552;2022-07-05T05:53:01;5.50;;;2.03;;
73251;SDS011;61473;50.834;4.552;2022-07-05T05:55:28;4.03;;;1.63;;
73251;SDS011;61473;50.834;4.552;2022-07-05T05:57:55;4.00;;;1.60;;
73251;SDS011;61473;50.834;4.552;2022-07-05T06:00:22;5.63;;;1.55;;
73251;SDS011;61473;50.834;4.552;2022-07-05T06:02:49;3.92;;;1.77;;
73251;SDS011;61473;50.834;4.552;2022-07-05T06:05:16;5.10;;;2.03;;
73251;SDS011;61473;50.834;4.552;2022-07-05T06:07:46;3.90;;;1.52;;
73251;SDS011;61473;50.834;4.552;2022-07-05T06:10:16;3.90;;;1.77;;
73251;SDS011;61473;50.834;4.552;2022-07-05T06:12:46;5.28;;;2.15;;
73251;SDS011;61473;50.834;4.552;2022-07-05T06:15:12;4.82;;;1.55;;
73251;SDS011;61473;50.834;4.552;2022-07-05T06:17:38;4.97;;;1.77;;
73251;SDS011;61473;50.834;4.552;2022-07-05T06:20:08;3.03;;;1.60;;
73251;SDS011;61473;50.834;4.552;2022-07-05T06:22:36;8.88;;;2.13;;
73251;SDS011;61473;50.834;4.552;2022-07-05T06:25:02;4.40;;;1.73;;
73251;SDS011;61473;50.834;4.552;2022-07-05T06:27:29;2.95;;;1.45;;
73251;SDS011;61473;50.834;4.552;2022-07-05T06:29:55;4.93;;;1.70;;
73251;SDS011;61473;50.834;4.552;2022-07-05T06:32:21;3.90;;;1.50;;
73251;SDS011;61473;50.834;4.552;2022-07-05T06:34:47;2.25;;;1.40;;
73251;SDS011;61473;50.834;4.552;2022-07-05T06:37:13;4.10;;;1.85;;
73251;SDS011;61473;50.834;4.552;2022-07-05T06:39:38;5.30;;;1.60;;
73251;SDS011;61473;50.834;4.552;2022-07-05T06:42:04;5.55;;;1.98;;
73251;SDS011;61473;50.834;4.552;2022-07-05T06:44:30;5.95;;;1.88;;
73251;SDS011;61473;50.834;4.552;2022-07-05T06:46:56;5.53;;;1.92;;
73251;SDS011;61473;50.834;4.552;2022-07-05T06:49:21;6.45;;;2.17;;
73251;SDS011;61473;50.834;4.552;2022-07-05T06:51:47;3.35;;;1.88;;
73251;SDS011;61473;50.834;4.552;2022-07-05T06:54:13;6.35;;;1.90;;
73251;SDS011;61473;50.834;4.552;2022-07-05T06:56:38;4.35;;;1.75;;
73251;SDS011;61473;50.834;4.552;2022-07-05T06:59:04;6.38;;;2.33;;
73251;SDS011;61473;50.834;4.552;2022-07-05T07:01:30;3.70;;;1.42;;
73251;SDS011;61473;50.834;4.552;2022-07-05T07:03:55;10.13;;;1.70;;
73251;SDS011;61473;50.834;4.552;2022-07-05T07:06:21;3.90;;;1.42;;
73251;SDS011;61473;50.834;4.552;2022-07-05T07:08:47;8.32;;;2.00;;
73251;SDS011;61473;50.834;4.552;2022-07-05T07:11:31;5.85;;;1.88;;
73251;SDS011;61473;50.834;4.552;2022-07-05T07:13:57;8.98;;;2.00;;
73251;SDS011;61473;50.834;4.552;2022-07-05T07:16:23;4.32;;;2.03;;
73251;SDS011;61473;50.834;4.552;2022-07-05T07:18:49;5.03;;;2.03;;
73251;SDS011;61473;50.834;4.552;2022-07-05T07:21:15;7.95;;;1.60;;
73251;SDS011;61473;50.834;4.552;2022-07-05T07:23:41;4.05;;;1.60;;
73251;SDS011;61473;50.834;4.552;2022-07-05T07:26:06;4.57;;;1.50;;
73251;SDS011;61473;50.834;4.552;2022-07-05T07:28:32;3.38;;;1.77;;
73251;SDS011;61473;50.834;4.552;2022-07-05T07:30:58;3.45;;;1.85;;
73251;SDS011;61473;50.834;4.552;2022-07-05T07:33:23;10.52;;;2.65;;
73251;SDS011;61473;50.834;4.552;2022-07-05T07:35:49;7.22;;;2.53;;
73251;SDS011;61473;50.834;4.552;2022-07-05T07:38:15;5.93;;;2.00;;
73251;SDS011;61473;50.834;4.552;2022-07-05T07:40:40;4.68;;;2.50;;
73251;SDS011;61473;50.834;4.552;2022-07-05T07:43:06;10.20;;;2.47;;
73251;SDS011;61473;50.834;4.552;2022-07-05T07:45:32;5.38;;;1.65;;
73251;SDS011;61473;50.834;4.552;2022-07-05T07:47:57;7.03;;;2.00;;
73251;SDS011;61473;50.834;4.552;2022-07-05T07:50:23;4.20;;;2.00;;
73251;SDS011;61473;50.834;4.552;2022-07-05T07:52:49;9.38;;;2.05;;
73251;SDS011;61473;50.834;4.552;2022-07-05T07:55:14;7.10;;;1.90;;
73251;SDS011;61473;50.834;4.552;2022-07-05T07:57:40;4.88;;;2.10;;
73251;SDS011;61473;50.834;4.552;2022-07-05T08:00:06;5.93;;;1.95;;
73251;SDS011;61473;50.834;4.552;2022-07-05T08:02:33;3.25;;;1.60;;
73251;SDS011;61473;50.834;4.552;2022-07-05T08:04:59;5.80;;;1.73;;
73251;SDS011;61473;50.834;4.552;2022-07-05T08:07:25;7.18;;;2.45;;
73251;SDS011;61473;50.834;4.552;2022-07-05T08:09:51;4.95;;;1.77;;
73251;SDS011;61473;50.834;4.552;2022-07-05T08:12:18;6.28;;;2.05;;
73251;SDS011;61473;50.834;4.552;2022-07-05T08:14:44;5.40;;;1.85;;
73251;SDS011;61473;50.834;4.552;2022-07-05T08:17:11;6.55;;;2.17;;
73251;SDS011;61473;50.834;4.552;2022-07-05T08:19:37;5.22;;;2.15;;
73251;SDS011;61473;50.834;4.552;2022-07-05T08:22:21;8.15;;;2.30;;
73251;SDS011;61473;50.834;4.552;2022-07-05T08:24:47;5.53;;;1.73;;
73251;SDS011;61473;50.834;4.552;2022-07-05T08:27:14;12.07;;;2.10;;
73251;SDS011;61473;50.834;4.552;2022-07-05T08:29:40;8.98;;;2.33;;
73251;SDS011;61473;50.834;4.552;2022-07-05T08:32:06;5.07;;;2.10;;
73251;SDS011;61473;50.834;4.552;2022-07-05T08:34:32;4.05;;;1.70;;
73251;SDS011;61473;50.834;4.552;2022-07-05T08:36:58;7.63;;;2.83;;
73251;SDS011;61473;50.834;4.552;2022-07-05T08:39:24;4.63;;;1.80;;
73251;SDS011;61473;50.834;4.552;2022-07-05T08:41:51;4.43;;;1.80;;
73251;SDS011;61473;50.834;4.552;2022-07-05T08:44:20;4.10;;;2.50;;
73251;SDS011;61473;50.834;4.552;2022-07-05T08:46:48;4.63;;;1.55;;
73251;SDS011;61473;50.834;4.552;2022-07-05T08:49:18;6.75;;;2.42;;
73251;SDS011;61473;50.834;4.552;2022-07-05T08:51:47;6.15;;;1.73;;
73251;SDS011;61473;50.834;4.552;2022-07-05T08:54:14;4.97;;;1.63;;
73251;SDS011;61473;50.834;4.552;2022-07-05T08:56:42;7.20;;;1.55;;
73251;SDS011;61473;50.834;4.552;2022-07-05T08:59:08;5.85;;;1.75;;
73251;SDS011;61473;50.834;4.552;2022-07-05T09:01:34;5.22;;;1.50;;
73251;SDS011;61473;50.834;4.552;2022-07-05T09:04:05;2.85;;;1.20;;
73251;SDS011;61473;50.834;4.552;2022-07-05T09:06:34;6.22;;;1.38;;
73251;SDS011;61473;50.834;4.552;2022-07-05T09:09:02;5.50;;;1.80;;
73251;SDS011;61473;50.834;4.552;2022-07-05T09:11:31;4.82;;;1.77;;
73251;SDS011;61473;50.834;4.552;2022-07-05T09:14:02;4.50;;;1.40;;
73251;SDS011;61473;50.834;4.552;2022-07-05T09:16:30;6.13;;;1.75;;
73251;SDS011;61473;50.834;4.552;2022-07-05T09:18:56;2.63;;;1.25;;
73251;SDS011;61473;50.834;4.552;2022-07-05T09:21:29;3.55;;;1.38;;
73251;SDS011;61473;50.834;4.552;2022-07-05T09:24:05;6.28;;;1.55;;
73251;SDS011;61473;50.834;4.552;2022-07-05T09:26:37;3.58;;;1.23;;
73251;SDS011;61473;50.834;4.552;2022-07-05T09:29:03;5.68;;;1.63;;
73251;SDS011;61473;50.834;4.552;2022-07-05T09:31:32;3.08;;;1.30;;
73251;SDS011;61473;50.834;4.552;2022-07-05T09:39:33;3.17;;;1.30;;
73251;SDS011;61473;50.834;4.552;2022-07-05T09:42:11;3.97;;;1.08;;
73251;SDS011;61473;50.834;4.552;2022-07-05T09:44:45;6.97;;;1.60;;
73251;SDS011;61473;50.834;4.552;2022-07-05T09:47:15;4.20;;;1.50;;
73251;SDS011;61473;50.834;4.552;2022-07-05T09:49:47;6.50;;;2.10;;
73251;SDS011;61473;50.834;4.552;2022-07-05T09:52:26;6.72;;;2.28;;
73251;SDS011;61473;50.834;4.552;2022-07-05T09:55:03;5.43;;;1.92;;
73251;SDS011;61473;50.834;4.552;2022-07-05T09:57:35;5.43;;;2.00;;
73251;SDS011;61473;50.834;4.552;2022-07-05T10:00:08;5.00;;;1.40;;
73251;SDS011;61473;50.834;4.552;2022-07-05T10:02:39;4.30;;;1.67;;
73251;SDS011;61473;50.834;4.552;2022-07-05T10:05:15;5.00;;;1.70;;
73251;SDS011;61473;50.834;4.552;2022-07-05T10:07:43;4.60;;;1.17;;
73251;SDS011;61473;50.834;4.552;2022-07-05T10:10:11;5.03;;;1.35;;
73251;SDS011;61473;50.834;4.552;2022-07-05T10:12:39;3.28;;;1.15;;
73251;SDS011;61473;50.834;4.552;2022-07-05T10:15:10;2.30;;;1.15;;
73251;SDS011;61473;50.834;4.552;2022-07-05T10:17:41;4.07;;;1.50;;
73251;SDS011;61473;50.834;4.552;2022-07-05T10:20:29;1.90;;;1.23;;
73251;SDS011;61473;50.834;4.552;2022-07-05T10:23:02;4.72;;;1.60;;
73251;SDS011;61473;50.834;4.552;2022-07-05T10:25:29;5.63;;;1.73;;
73251;SDS011;61473;50.834;4.552;2022-07-05T10:27:56;2.20;;;1.20;;
73251;SDS011;61473;50.834;4.552;2022-07-05T10:30:23;4.78;;;1.70;;
73251;SDS011;61473;50.834;4.552;2022-07-05T10:32:49;3.65;;;1.20;;
73251;SDS011;61473;50.834;4.552;2022-07-05T10:35:16;2.58;;;1.08;;
73251;SDS011;61473;50.834;4.552;2022-07-05T10:37:43;5.97;;;1.70;;
73251;SDS011;61473;50.834;4.552;2022-07-05T10:40:10;4.57;;;2.22;;
73251;SDS011;61473;50.834;4.552;2022-07-05T10:42:40;3.92;;;1.80;;
73251;SDS011;61473;50.834;4.552;2022-07-05T10:45:29;3.58;;;1.90;;
73251;SDS011;61473;50.834;4.552;2022-07-05T10:48:11;9.13;;;2.10;;
73251;SDS011;61473;50.834;4.552;2022-07-05T10:53:28;4.05;;;2.00;;
73251;SDS011;61473;50.834;4.552;2022-07-05T10:56:14;5.45;;;1.83;;
73251;SDS011;61473;50.834;4.552;2022-07-05T11:11:28;5.38;;;2.17;;
73251;SDS011;61473;50.834;4.552;2022-07-05T11:13:55;4.18;;;2.55;;
73251;SDS011;61473;50.834;4.552;2022-07-05T11:16:28;3.80;;;2.42;;
73251;SDS011;61473;50.834;4.552;2022-07-05T11:19:07;3.08;;;2.20;;
73251;SDS011;61473;50.834;4.552;2022-07-05T11:21:39;5.60;;;2.25;;
73251;SDS011;61473;50.834;4.552;2022-07-05T11:24:27;4.00;;;2.50;;
73251;SDS011;61473;50.834;4.552;2022-07-05T11:26:59;5.10;;;2.70;;
73251;SDS011;61473;50.834;4.552;2022-07-05T11:34:42;3.13;;;2.13;;
73251;SDS011;61473;50.834;4.552;2022-07-05T11:42:10;3.42;;;1.98;;
73251;SDS011;61473;50.834;4.552;2022-07-05T11:44:44;2.53;;;1.63;;
73251;SDS011;61473;50.834;4.552;2022-07-05T11:47:14;2.35;;;1.88;;
73251;SDS011;61473;50.834;4.552;2022-07-05T11:49:54;5.50;;;1.63;;
73251;SDS011;61473;50.834;4.552;2022-07-05T11:54:59;6.72;;;1.92;;
73251;SDS011;61473;50.834;4.552;2022-07-05T11:57:26;2.17;;;1.50;;
73251;SDS011;61473;50.834;4.552;2022-07-05T11:59:52;4.35;;;2.00;;
73251;SDS011;61473;50.834;4.552;2022-07-05T12:02:18;3.70;;;2.13;;
73251;SDS011;61473;50.834;4.552;2022-07-05T12:04:51;4.05;;;1.83;;
73251;SDS011;61473;50.834;4.552;2022-07-05T12:07:51;3.13;;;2.10;;
73251;SDS011;61473;50.834;4.552;2022-07-05T12:10:16;3.78;;;1.65;;
73251;SDS011;61473;50.834;4.552;2022-07-05T12:13:08;4.80;;;1.63;;
73251;SDS011;61473;50.834;4.552;2022-07-05T12:15:35;4.22;;;1.33;;
73251;SDS011;61473;50.834;4.552;2022-07-05T12:18:02;4.20;;;1.75;;
73251;SDS011;61473;50.834;4.552;2022-07-05T12:20:29;5.35;;;1.83;;
73251;SDS011;61473;50.834;4.552;2022-07-05T12:22:57;4.43;;;1.92;;
73251;SDS011;61473;50.834;4.552;2022-07-05T12:25:26;3.05;;;1.48;;
73251;SDS011;61473;50.834;4.552;2022-07-05T12:27:55;2.72;;;1.38;;
73251;SDS011;61473;50.834;4.552;2022-07-05T12:30:22;4.00;;;1.77;;
73251;SDS011;61473;50.834;4.552;2022-07-05T12:40:40;4.13;;;1.40;;
73251;SDS011;61473;50.834;4.552;2022-07-05T12:45:32;5.47;;;1.85;;
73251;SDS011;61473;50.834;4.552;2022-07-05T12:48:02;3.20;;;1.50;;
73251;SDS011;61473;50.834;4.552;2022-07-05T12:50:30;5.40;;;1.42;;
73251;SDS011;61473;50.834;4.552;2022-07-05T12:53:10;4.85;;;1.42;;
73251;SDS011;61473;50.834;4.552;2022-07-05T12:58:47;5.57;;;1.65;;
73251;SDS011;61473;50.834;4.552;2022-07-05T13:03:55;7.05;;;1.30;;
73251;SDS011;61473;50.834;4.552;2022-07-05T13:09:37;7.43;;;2.10;;
73251;SDS011;61473;50.834;4.552;2022-07-05T13:12:09;10.38;;;2.13;;
73251;SDS011;61473;50.834;4.552;2022-07-05T13:14:49;4.10;;;1.50;;
73251;SDS011;61473;50.834;4.552;2022-07-05T13:17:17;7.07;;;1.65;;
73251;SDS011;61473;50.834;4.552;2022-07-05T13:19:45;4.88;;;1.77;;
73251;SDS011;61473;50.834;4.552;2022-07-05T13:22:12;5.93;;;1.88;;
73251;SDS011;61473;50.834;4.552;2022-07-05T13:24:38;9.73;;;2.58;;
73251;SDS011;61473;50.834;4.552;2022-07-05T13:27:05;5.10;;;1.50;;
73251;SDS011;61473;50.834;4.552;2022-07-05T13:29:31;7.00;;;1.23;;
73251;SDS011;61473;50.834;4.552;2022-07-05T13:31:58;3.40;;;1.40;;
73251;SDS011;61473;50.834;4.552;2022-07-05T13:34:24;5.00;;;1.70;;
73251;SDS011;61473;50.834;4.552;2022-07-05T13:36:54;2.75;;;1.33;;
73251;SDS011;61473;50.834;4.552;2022-07-05T13:39:21;3.97;;;1.92;;
73251;SDS011;61473;50.834;4.552;2022-07-05T13:41:48;6.30;;;1.50;;
73251;SDS011;61473;50.834;4.552;2022-07-05T13:44:16;5.32;;;1.73;;
73251;SDS011;61473;50.834;4.552;2022-07-05T13:46:42;5.78;;;1.40;;
73251;SDS011;61473;50.834;4.552;2022-07-05T13:49:08;3.67;;;1.60;;
73251;SDS011;61473;50.834;4.552;2022-07-05T13:51:33;6.18;;;1.30;;
73251;SDS011;61473;50.834;4.552;2022-07-05T13:53:59;4.25;;;1.38;;
73251;SDS011;61473;50.834;4.552;2022-07-05T13:56:25;3.30;;;1.00;;
73251;SDS011;61473;50.834;4.552;2022-07-05T13:58:52;3.95;;;1.27;;
73251;SDS011;61473;50.834;4.552;2022-07-05T14:01:21;5.18;;;1.52;;
73251;SDS011;61473;50.834;4.552;2022-07-05T14:03:52;3.05;;;1.00;;
73251;SDS011;61473;50.834;4.552;2022-07-05T14:06:18;2.28;;;1.20;;
73251;SDS011;61473;50.834;4.552;2022-07-05T14:08:44;3.15;;;1.42;;
73251;SDS011;61473;50.834;4.552;2022-07-05T14:11:10;9.25;;;2.33;;
73251;SDS011;61473;50.834;4.552;2022-07-05T14:13:37;79.95;;;9.45;;
73251;SDS011;61473;50.834;4.552;2022-07-05T14:16:04;54.05;;;9.23;;
73251;SDS011;61473;50.834;4.552;2022-07-05T14:18:30;35.38;;;6.55;;
73251;SDS011;61473;50.834;4.552;2022-07-05T14:20:56;31.75;;;5.82;;
73251;SDS011;61473;50.834;4.552;2022-07-05T14:23:22;17.20;;;3.40;;
73251;SDS011;61473;50.834;4.552;2022-07-05T14:25:47;24.27;;;4.68;;
73251;SDS011;61473;50.834;4.552;2022-07-05T14:28:13;21.60;;;4.07;;
73251;SDS011;61473;50.834;4.552;2022-07-05T14:30:40;21.08;;;3.08;;
73251;SDS011;61473;50.834;4.552;2022-07-05T14:33:08;9.60;;;2.53;;
73251;SDS011;61473;50.834;4.552;2022-07-05T14:35:34;15.40;;;2.92;;
73251;SDS011;61473;50.834;4.552;2022-07-05T14:38:01;9.02;;;2.05;;
73251;SDS011;61473;50.834;4.552;2022-07-05T14:40:26;11.43;;;2.10;;
73251;SDS011;61473;50.834;4.552;2022-07-05T14:42:54;13.40;;;4.03;;
73251;SDS011;61473;50.834;4.552;2022-07-05T14:45:20;11.40;;;2.60;;
73251;SDS011;61473;50.834;4.552;2022-07-05T14:47:46;4.45;;;1.40;;
73251;SDS011;61473;50.834;4.552;2022-07-05T14:50:13;7.13;;;1.73;;
73251;SDS011;61473;50.834;4.552;2022-07-05T14:52:39;5.28;;;1.63;;
73251;SDS011;61473;50.834;4.552;2022-07-05T14:55:06;8.80;;;1.88;;
73251;SDS011;61473;50.834;4.552;2022-07-05T14:57:32;4.82;;;1.70;;
73251;SDS011;61473;50.834;4.552;2022-07-05T14:59:58;7.22;;;1.13;;
73251;SDS011;61473;50.834;4.552;2022-07-05T15:02:23;6.65;;;1.30;;
73251;SDS011;61473;50.834;4.552;2022-07-05T15:04:49;4.13;;;1.40;;
73251;SDS011;61473;50.834;4.552;2022-07-05T15:07:15;6.13;;;1.13;;
73251;SDS011;61473;50.834;4.552;2022-07-05T15:09:41;5.15;;;1.33;;
73251;SDS011;61473;50.834;4.552;2022-07-05T15:12:07;6.63;;;1.40;;
73251;SDS011;61473;50.834;4.552;2022-07-05T15:14:33;5.18;;;1.65;;
73251;SDS011;61473;50.834;4.552;2022-07-05T15:16:59;8.02;;;1.63;;
73251;SDS011;61473;50.834;4.552;2022-07-05T15:19:24;2.60;;;1.00;;
73251;SDS011;61473;50.834;4.552;2022-07-05T15:21:50;3.95;;;1.23;;
73251;SDS011;61473;50.834;4.552;2022-07-05T15:24:16;7.18;;;1.45;;
73251;SDS011;61473;50.834;4.552;2022-07-05T15:26:44;2.95;;;1.38;;
73251;SDS011;61473;50.834;4.552;2022-07-05T15:29:10;5.25;;;1.17;;
73251;SDS011;61473;50.834;4.552;2022-07-05T15:31:36;4.90;;;1.00;;
73251;SDS011;61473;50.834;4.552;2022-07-05T15:34:02;2.85;;;1.30;;
73251;SDS011;61473;50.834;4.552;2022-07-05T15:36:30;5.82;;;1.10;;
73251;SDS011;61473;50.834;4.552;2022-07-05T15:38:57;5.43;;;1.23;;
73251;SDS011;61473;50.834;4.552;2022-07-05T15:41:24;1.65;;;1.02;;
73251;SDS011;61473;50.834;4.552;2022-07-05T15:43:49;4.65;;;1.00;;